DataTemp.
Ø
Temp.
Max
Temp.
Min
UmiditàPressionePioggiaVento
Ø
Vento
dir. Ø
Vento
Max
Indice UV
Max
21.04.2021 00:008.6°C8.6°C8.6°C64.0%1015.0hPa0.0mm7.1km/hSSW9.4km/h0uvi
21.04.2021 00:058.6°C8.6°C8.6°C64.0%1015.0hPa0.0mm5.4km/hSSE6.8km/h0uvi
21.04.2021 00:108.6°C8.7°C8.6°C64.0%1015.0hPa0.0mm6.8km/hSSW10.4km/h0uvi
21.04.2021 00:158.7°C8.7°C8.7°C64.0%1015.0hPa0.0mm7.9km/hSSW10.4km/h0uvi
21.04.2021 00:208.7°C8.7°C8.7°C64.0%1015.0hPa0.0mm6.4km/hSSW8.6km/h0uvi
21.04.2021 00:258.7°C8.7°C8.7°C64.0%1015.0hPa0.0mm6.0km/hSSW9.4km/h0uvi
21.04.2021 00:308.6°C8.7°C8.6°C64.0%1015.0hPa0.0mm4.8km/hSSW6.1km/h0uvi
21.04.2021 00:358.6°C8.6°C8.6°C64.0%1015.0hPa0.0mm6.0km/hSSW10.4km/h0uvi
21.04.2021 00:408.6°C8.6°C8.5°C64.0%1015.0hPa0.0mm5.4km/hSSW9.4km/h0uvi
21.04.2021 00:458.5°C8.5°C8.5°C64.8%1015.0hPa0.0mm5.1km/hSSW8.6km/h0uvi
21.04.2021 00:508.4°C8.5°C8.4°C64.0%1015.0hPa0.0mm5.7km/hSSW7.9km/h0uvi
21.04.2021 00:558.3°C8.4°C8.3°C64.0%1015.0hPa0.0mm5.1km/hSSE6.8km/h0uvi
21.04.2021 01:008.3°C8.3°C8.2°C64.0%1015.0hPa0.0mm4.5km/hSSE5.8km/h0uvi
21.04.2021 01:058.2°C8.2°C8.2°C64.0%1015.0hPa0.0mm4.7km/hSSE7.9km/h0uvi
21.04.2021 01:108.2°C8.2°C8.2°C64.0%1015.0hPa0.0mm4.5km/hSSE5.8km/h0uvi
21.04.2021 01:158.2°C8.2°C8.2°C64.0%1015.0hPa0.0mm6.1km/hSE9.7km/h0uvi
21.04.2021 01:208.1°C8.1°C8.1°C64.3%1015.0hPa0.0mm2.3km/hESE4.0km/h0uvi
21.04.2021 01:258.1°C8.1°C8.0°C64.2%1015.6hPa0.0mm1.3km/hSSE7.9km/h0uvi
21.04.2021 01:308.0°C8.1°C8.0°C64.6%1016.0hPa0.0mm5.3km/hSSE8.6km/h0uvi
21.04.2021 01:358.1°C8.1°C8.1°C64.2%1016.0hPa0.0mm3.9km/hSSE5.8km/h0uvi
21.04.2021 01:408.1°C8.1°C8.1°C65.0%1016.0hPa0.0mm4.1km/hSSE6.5km/h0uvi
21.04.2021 01:458.0°C8.0°C8.0°C65.0%1016.0hPa0.0mm2.7km/hSSE4.3km/h0uvi
21.04.2021 01:508.0°C8.0°C8.0°C65.0%1016.0hPa0.0mm3.2km/hSSE6.5km/h0uvi
21.04.2021 01:558.0°C8.0°C8.0°C65.0%1016.0hPa0.0mm2.8km/hSSE4.7km/h0uvi
21.04.2021 02:008.0°C8.0°C8.0°C65.0%1016.0hPa0.0mm2.3km/hSSE3.6km/h0uvi
21.04.2021 02:058.0°C8.0°C8.0°C65.0%1016.0hPa0.0mm1.6km/hSE4.0km/h0uvi
21.04.2021 02:107.9°C7.9°C7.9°C65.0%1016.0hPa0.0mm3.3km/hESE5.8km/h0uvi
21.04.2021 02:157.9°C7.9°C7.9°C66.0%1016.0hPa0.0mm4.1km/hSSW10.1km/h0uvi
21.04.2021 02:207.9°C7.9°C7.9°C66.0%1016.0hPa0.0mm3.5km/hSSE5.0km/h0uvi
21.04.2021 02:257.8°C7.9°C7.8°C66.0%1016.0hPa0.0mm3.9km/hSSW5.8km/h0uvi
21.04.2021 02:307.8°C7.8°C7.7°C66.0%1016.0hPa0.0mm3.9km/hSSE6.5km/h0uvi
21.04.2021 02:357.7°C7.7°C7.7°C66.0%1016.0hPa0.0mm4.5km/hSSW7.2km/h0uvi
21.04.2021 02:407.6°C7.7°C7.5°C66.3%1015.3hPa0.0mm3.2km/hSSE6.5km/h0uvi
21.04.2021 02:457.5°C7.5°C7.4°C66.8%1015.0hPa0.0mm2.4km/hSSE4.3km/h0uvi
21.04.2021 02:507.4°C7.4°C7.4°C67.0%1015.0hPa0.0mm2.4km/hSSE5.4km/h0uvi
21.04.2021 02:557.3°C7.3°C7.3°C66.2%1015.7hPa0.0mm0.6km/hENE3.2km/h0uvi
21.04.2021 03:007.2°C7.2°C7.1°C67.0%1016.0hPa0.0mm3.2km/hSSE6.1km/h0uvi
21.04.2021 03:057.1°C7.1°C7.1°C68.0%1016.0hPa0.0mm3.7km/hSSW7.9km/h0uvi
21.04.2021 03:107.2°C7.2°C7.1°C67.3%1016.0hPa0.0mm3.1km/hSSE5.4km/h0uvi
21.04.2021 03:157.2°C7.2°C7.1°C67.0%1016.0hPa0.0mm3.0km/hSE7.6km/h0uvi
21.04.2021 03:207.1°C7.1°C7.0°C67.4%1016.0hPa0.0mm3.3km/hSSE5.8km/h0uvi
21.04.2021 03:257.0°C7.0°C7.0°C67.3%1016.0hPa0.0mm2.9km/hSE4.0km/h0uvi
21.04.2021 03:306.9°C7.0°C6.9°C68.0%1016.0hPa0.0mm2.6km/hSSE4.0km/h0uvi
21.04.2021 03:356.8°C6.9°C6.8°C68.0%1016.0hPa0.0mm1.9km/hSSE4.7km/h0uvi
21.04.2021 03:406.7°C6.8°C6.7°C68.0%1015.4hPa0.0mm0.5km/hSE1.8km/h0uvi
21.04.2021 03:456.7°C6.7°C6.6°C68.0%1015.0hPa0.0mm2.2km/hSSE5.0km/h0uvi
21.04.2021 03:506.7°C6.7°C6.7°C68.4%1015.0hPa0.0mm3.3km/hSSW5.4km/h0uvi
21.04.2021 03:556.7°C6.7°C6.7°C69.0%1015.0hPa0.0mm2.9km/hSSE4.7km/h0uvi
21.04.2021 04:006.7°C6.7°C6.6°C69.0%1015.0hPa0.0mm2.3km/hNE4.0km/h0uvi
21.04.2021 04:056.5°C6.6°C6.5°C68.6%1015.0hPa0.0mm1.2km/hESE3.6km/h0uvi
21.04.2021 04:106.5°C6.5°C6.5°C68.2%1015.7hPa0.0mm2.4km/hSSE5.8km/h0uvi
21.04.2021 04:156.5°C6.5°C6.5°C68.8%1016.0hPa0.0mm3.0km/hSE4.7km/h0uvi
21.04.2021 04:206.4°C6.5°C6.4°C68.8%1016.0hPa0.0mm2.4km/hSE4.7km/h0uvi
21.04.2021 04:256.3°C6.4°C6.3°C69.0%1015.3hPa0.0mm2.0km/hESE4.0km/h0uvi
21.04.2021 04:306.2°C6.2°C6.2°C69.0%1015.0hPa0.0mm1.2km/hSE4.0km/h0uvi
21.04.2021 04:356.2°C6.2°C6.2°C69.0%1015.0hPa0.0mm1.3km/hSSE2.2km/h0uvi
21.04.2021 04:406.2°C6.2°C6.2°C69.0%1015.0hPa0.0mm0.0km/hSE1.8km/h0uvi
21.04.2021 04:456.2°C6.2°C6.1°C69.0%1015.0hPa0.0mm0.2km/hESE3.2km/h0uvi
21.04.2021 04:506.1°C6.1°C6.1°C69.0%1015.0hPa0.0mm1.0km/hSE2.5km/h0uvi
21.04.2021 04:556.0°C6.0°C6.0°C69.0%1015.8hPa0.0mm0.8km/hSSE2.5km/h0uvi
21.04.2021 05:006.0°C6.0°C5.9°C69.2%1016.0hPa0.0mm0.3km/hSSE1.8km/h0uvi
21.04.2021 05:055.9°C5.9°C5.9°C69.8%1016.0hPa0.0mm1.2km/hSSE5.0km/h0uvi
21.04.2021 05:106.0°C6.0°C6.0°C71.0%1016.0hPa0.0mm5.3km/hSSW8.6km/h0uvi
21.04.2021 05:156.0°C6.0°C6.0°C71.0%1016.0hPa0.0mm3.8km/hSSW4.7km/h0uvi
21.04.2021 05:206.0°C6.0°C6.0°C70.2%1016.0hPa0.0mm2.6km/hNE4.3km/h0uvi
21.04.2021 05:255.9°C6.0°C5.8°C70.0%1016.0hPa0.0mm0.6km/hNE2.5km/h0uvi
21.04.2021 05:305.7°C5.8°C5.7°C70.0%1016.0hPa0.0mm0.1km/hNE2.2km/h0uvi
21.04.2021 05:355.7°C5.7°C5.6°C70.8%1016.0hPa0.0mm0.4km/hWNW2.5km/h0uvi
21.04.2021 05:405.6°C5.6°C5.6°C72.7%1016.0hPa0.0mm0.9km/hSSW3.2km/h0uvi
21.04.2021 05:455.5°C5.5°C5.4°C73.0%1016.0hPa0.0mm1.6km/hSSW2.5km/h0uvi
21.04.2021 05:505.4°C5.4°C5.4°C73.0%1016.0hPa0.0mm0.7km/hSSW2.5km/h0uvi
21.04.2021 05:555.3°C5.3°C5.3°C73.0%1016.0hPa0.0mm0.8km/hWSW4.7km/h0uvi
21.04.2021 06:005.4°C5.4°C5.3°C73.6%1016.0hPa0.0mm2.2km/hSSE4.0km/h0uvi
21.04.2021 06:055.4°C5.4°C5.4°C73.0%1016.0hPa0.0mm1.1km/hSSW3.2km/h0uvi
21.04.2021 06:105.3°C5.4°C5.3°C72.4%1015.3hPa0.0mm0.2km/hWSW2.2km/h0uvi
21.04.2021 06:155.3°C5.3°C5.3°C72.5%1015.0hPa0.0mm0.9km/hSSW2.5km/h0uvi
21.04.2021 06:205.2°C5.2°C5.2°C73.0%1015.0hPa0.0mm0.0km/hWSW1.4km/h0uvi
21.04.2021 06:255.1°C5.1°C5.1°C73.2%1015.8hPa0.0mm0.6km/hWSW3.2km/h0uvi
21.04.2021 06:305.1°C5.1°C5.0°C73.2%1016.0hPa0.0mm0.2km/hWSW1.8km/h0uvi
21.04.2021 06:355.0°C5.0°C5.0°C74.0%1016.0hPa0.0mm0.2km/hWSW1.8km/h0uvi
21.04.2021 06:405.0°C5.0°C5.0°C74.7%1016.0hPa0.0mm1.5km/hNW3.2km/h0uvi
21.04.2021 06:455.0°C5.0°C4.9°C76.4%1016.0hPa0.0mm1.9km/hWSW3.6km/h0uvi
21.04.2021 06:504.8°C4.9°C4.8°C77.0%1016.0hPa0.0mm0.8km/hWSW4.3km/h0uvi
21.04.2021 06:554.8°C4.8°C4.8°C77.0%1016.0hPa0.0mm0.0km/hWSW0.0km/h0uvi
21.04.2021 07:004.8°C4.8°C4.8°C77.0%1016.0hPa0.0mm0.5km/hWSW2.5km/h0uvi
21.04.2021 07:054.8°C4.8°C4.7°C77.8%1016.0hPa0.0mm2.4km/hWSW4.0km/h0uvi
21.04.2021 07:104.7°C4.7°C4.7°C78.0%1016.0hPa0.0mm1.2km/hWSW2.2km/h0uvi
21.04.2021 07:154.7°C4.7°C4.7°C78.0%1016.0hPa0.0mm0.5km/hWSW3.2km/h0uvi
21.04.2021 07:204.8°C4.8°C4.7°C78.0%1016.0hPa0.0mm1.9km/hWSW3.6km/h0uvi
21.04.2021 07:254.8°C4.8°C4.8°C79.2%1016.0hPa0.0mm2.4km/hSSW4.0km/h0uvi
21.04.2021 07:304.8°C4.9°C4.8°C80.0%1016.0hPa0.0mm2.2km/hWSW3.6km/h0uvi
21.04.2021 07:354.9°C5.0°C4.9°C80.0%1016.0hPa0.0mm1.0km/hWNW2.2km/h0uvi
21.04.2021 07:405.0°C5.1°C5.0°C80.0%1016.0hPa0.0mm1.3km/hWSW3.2km/h0uvi
21.04.2021 07:455.2°C5.2°C5.1°C80.0%1016.0hPa0.0mm2.0km/hSSW2.5km/h0uvi
21.04.2021 07:505.3°C5.4°C5.2°C80.0%1016.0hPa0.0mm1.7km/hWSW3.6km/h0uvi
21.04.2021 07:555.5°C5.5°C5.4°C80.0%1015.2hPa0.0mm1.8km/hWSW3.2km/h0uvi
21.04.2021 08:005.6°C5.7°C5.6°C80.0%1015.0hPa0.0mm2.0km/hSSW4.0km/h0uvi
21.04.2021 08:055.7°C5.8°C5.7°C80.0%1015.0hPa0.0mm1.1km/hWSW2.2km/h0uvi
21.04.2021 08:105.9°C5.9°C5.8°C80.0%1015.7hPa0.0mm0.8km/hWSW3.6km/h0uvi
21.04.2021 08:156.0°C6.1°C6.0°C78.4%1016.0hPa0.0mm1.1km/hWSW2.5km/h0uvi
21.04.2021 08:206.2°C6.2°C6.2°C78.0%1016.0hPa0.0mm1.4km/hWSW4.0km/h0uvi
21.04.2021 08:256.3°C6.4°C6.3°C78.0%1016.0hPa0.0mm0.8km/hWNW2.5km/h0uvi
21.04.2021 08:306.5°C6.6°C6.4°C78.0%1016.0hPa0.0mm0.8km/hWSW2.5km/h0uvi
21.04.2021 08:356.8°C6.8°C6.7°C78.0%1016.0hPa0.0mm0.0km/hWSW2.5km/h0uvi
21.04.2021 08:406.9°C7.0°C6.9°C77.8%1016.0hPa0.0mm0.2km/hWSW1.8km/h0uvi
21.04.2021 08:457.1°C7.2°C7.1°C77.0%1016.0hPa0.0mm0.6km/hNW2.5km/h0uvi
21.04.2021 08:507.4°C7.5°C7.3°C75.4%1016.0hPa0.0mm0.0km/hWNW1.8km/h0uvi
21.04.2021 08:557.6°C7.7°C7.5°C74.6%1016.0hPa0.0mm0.3km/hW3.2km/h0uvi
21.04.2021 09:007.9°C7.9°C7.8°C72.0%1016.0hPa0.0mm0.0km/hENE0.0km/h0uvi
21.04.2021 09:058.0°C8.1°C8.0°C72.0%1016.0hPa0.0mm0.5km/hWNW3.2km/h0uvi
21.04.2021 09:108.3°C8.4°C8.2°C71.0%1016.0hPa0.0mm1.3km/hWSW4.7km/h0uvi
21.04.2021 09:158.5°C8.5°C8.4°C69.8%1016.0hPa0.0mm3.1km/hESE5.0km/h0uvi
21.04.2021 09:208.6°C8.6°C8.6°C69.3%1016.0hPa0.0mm1.4km/hSSE4.3km/h0uvi
21.04.2021 09:258.8°C8.9°C8.7°C68.2%1016.0hPa0.0mm1.3km/hSSW3.2km/h0uvi
21.04.2021 09:309.0°C9.1°C8.9°C67.8%1016.0hPa0.0mm1.2km/hNE4.7km/h0uvi
21.04.2021 09:359.2°C9.3°C9.1°C66.0%1016.0hPa0.0mm3.8km/hNE5.0km/h1uvi
21.04.2021 09:409.5°C9.6°C9.4°C66.0%1016.0hPa0.0mm2.4km/hNE4.7km/h1uvi
21.04.2021 09:459.7°C9.8°C9.6°C65.2%1016.0hPa0.0mm1.9km/hNE5.4km/h1uvi
21.04.2021 09:509.9°C10.1°C9.8°C64.7%1016.0hPa0.0mm2.2km/hNE4.3km/h1uvi
21.04.2021 09:5510.2°C10.2°C10.1°C64.0%1016.0hPa0.0mm2.0km/hNE4.3km/h1uvi
21.04.2021 10:0010.4°C10.5°C10.3°C63.8%1016.0hPa0.0mm4.4km/hSSE6.1km/h1uvi
21.04.2021 10:0510.8°C11.1°C10.5°C61.5%1016.0hPa0.0mm2.8km/hSSE5.4km/h2uvi
21.04.2021 10:1011.3°C11.5°C11.2°C59.6%1016.0hPa0.0mm2.4km/hNE6.5km/h2uvi
21.04.2021 10:1511.7°C11.8°C11.3°C59.8%1016.0hPa0.0mm3.1km/hSSE4.7km/h2uvi
21.04.2021 10:2012.2°C12.5°C11.9°C60.2%1016.0hPa0.0mm3.1km/hSSE7.6km/h2uvi
21.04.2021 10:2512.4°C12.6°C12.2°C57.8%1016.0hPa0.0mm3.1km/hNE8.6km/h2uvi
21.04.2021 10:3012.2°C12.4°C12.1°C56.2%1016.0hPa0.0mm4.3km/hNE6.1km/h2uvi
21.04.2021 10:3512.5°C13.0°C12.2°C55.3%1016.0hPa0.0mm2.4km/hWNW4.7km/h2uvi
21.04.2021 10:4012.8°C13.0°C12.6°C55.0%1016.0hPa0.0mm3.4km/hNE6.5km/h2uvi
21.04.2021 10:4513.2°C13.3°C13.1°C55.5%1016.0hPa0.0mm3.1km/hNE7.9km/h3uvi
21.04.2021 10:5013.2°C13.3°C13.0°C55.0%1016.0hPa0.0mm4.1km/hNW7.6km/h3uvi
21.04.2021 10:5513.4°C13.5°C13.2°C55.2%1016.0hPa0.0mm4.3km/hNE6.5km/h3uvi
21.04.2021 11:0013.7°C14.1°C13.3°C55.2%1016.0hPa0.0mm3.4km/hNE5.0km/h3uvi
21.04.2021 11:0514.0°C14.1°C13.9°C54.2%1016.0hPa0.0mm3.6km/hNE9.4km/h3uvi
21.04.2021 11:1014.2°C14.3°C14.1°C52.5%1016.0hPa0.0mm1.7km/hSSE4.3km/h2uvi
21.04.2021 11:1514.2°C14.3°C14.1°C53.0%1016.0hPa0.0mm3.6km/hNE6.8km/h2uvi
21.04.2021 11:2013.8°C14.0°C13.8°C53.5%1016.0hPa0.0mm3.7km/hNE7.9km/h2uvi
21.04.2021 11:2514.0°C14.1°C13.9°C53.7%1016.0hPa0.0mm3.0km/hNW7.6km/h3uvi
21.04.2021 11:3014.3°C14.6°C14.0°C53.3%1016.0hPa0.0mm3.0km/hENE5.4km/h3uvi
21.04.2021 11:3514.4°C14.5°C14.2°C53.7%1016.0hPa0.0mm5.2km/hNE7.9km/h3uvi
21.04.2021 11:4014.3°C14.5°C14.3°C52.5%1016.0hPa0.0mm5.6km/hNW12.2km/h4uvi
21.04.2021 11:4514.7°C14.9°C14.6°C53.0%1016.0hPa0.0mm5.9km/hNE10.1km/h4uvi
21.04.2021 11:5015.2°C15.7°C14.6°C51.8%1016.0hPa0.0mm4.5km/hNE9.4km/h4uvi
21.04.2021 11:5515.4°C15.6°C15.0°C50.4%1016.0hPa0.0mm4.5km/hNE7.9km/h4uvi
21.04.2021 12:0015.3°C15.5°C15.2°C49.0%1016.0hPa0.0mm4.7km/hNE12.2km/h3uvi
21.04.2021 12:0515.2°C15.3°C15.0°C48.8%1016.0hPa0.0mm5.8km/hSSE10.4km/h1uvi
21.04.2021 12:1014.8°C15.0°C14.6°C48.3%1015.3hPa0.0mm5.6km/hNE7.9km/h1uvi
21.04.2021 12:1514.4°C14.6°C14.3°C50.0%1015.0hPa0.0mm6.6km/hNE7.6km/h0uvi
21.04.2021 12:2014.2°C14.3°C14.1°C51.2%1015.0hPa0.0mm7.1km/hENE10.4km/h0uvi
21.04.2021 12:2514.0°C14.0°C13.9°C54.0%1015.7hPa0.0mm6.2km/hNE11.9km/h1uvi
21.04.2021 12:3013.9°C13.9°C13.8°C54.8%1016.0hPa0.0mm6.7km/hNE11.9km/h1uvi
21.04.2021 12:3513.9°C14.0°C13.8°C55.5%1016.0hPa0.0mm6.2km/hNE9.4km/h3uvi
21.04.2021 12:4014.2°C14.4°C14.1°C56.0%1015.3hPa0.0mm6.5km/hENE9.4km/h5uvi
21.04.2021 12:4514.6°C14.7°C14.4°C56.2%1015.0hPa0.0mm5.6km/hNE10.1km/h4uvi
21.04.2021 12:5014.7°C15.0°C14.3°C55.8%1015.0hPa0.0mm6.0km/hNE10.4km/h4uvi
21.04.2021 12:5515.1°C15.2°C15.1°C53.7%1015.0hPa0.0mm4.8km/hNE12.2km/h3uvi
21.04.2021 13:0015.0°C15.0°C14.9°C53.8%1015.0hPa0.0mm6.0km/hNE10.4km/h3uvi
21.04.2021 13:0514.8°C14.8°C14.7°C53.8%1015.0hPa0.0mm6.9km/hNE10.1km/h2uvi
21.04.2021 13:1014.7°C14.7°C14.6°C53.5%1015.0hPa0.0mm7.5km/hNE13.7km/h2uvi
21.04.2021 13:1514.7°C14.7°C14.7°C51.6%1015.0hPa0.0mm7.4km/hNE12.6km/h2uvi
21.04.2021 13:2014.7°C14.7°C14.6°C51.0%1015.0hPa0.0mm9.2km/hENE15.1km/h3uvi
21.04.2021 13:2514.3°C14.5°C14.1°C52.2%1015.0hPa0.0mm10.7km/hNE23.8km/h2uvi
21.04.2021 13:3014.0°C14.0°C14.0°C53.3%1015.0hPa0.0mm8.3km/hNE14.0km/h1uvi
21.04.2021 13:3513.7°C13.8°C13.6°C53.8%1015.0hPa0.0mm11.9km/hNE17.3km/h1uvi
21.04.2021 13:4013.4°C13.5°C13.4°C53.0%1015.0hPa0.0mm12.6km/hENE23.8km/h1uvi
21.04.2021 13:4513.3°C13.4°C13.2°C53.0%1015.0hPa0.0mm11.4km/hNE20.5km/h1uvi
21.04.2021 13:5013.2°C13.2°C13.1°C52.7%1015.0hPa0.0mm13.1km/hNE21.6km/h1uvi
21.04.2021 13:5513.1°C13.2°C13.1°C52.0%1015.0hPa0.0mm14.7km/hNE24.5km/h1uvi
21.04.2021 14:0013.3°C13.4°C13.2°C51.8%1015.0hPa0.0mm10.7km/hNE20.5km/h1uvi
21.04.2021 14:0513.3°C13.3°C13.3°C52.0%1015.0hPa0.0mm10.2km/hNE16.6km/h1uvi
21.04.2021 14:1013.2°C13.3°C13.2°C51.8%1015.0hPa0.0mm12.6km/hENE23.4km/h1uvi
21.04.2021 14:1513.3°C13.4°C13.3°C52.0%1015.0hPa0.0mm10.5km/hENE17.3km/h1uvi
21.04.2021 14:2013.3°C13.4°C13.3°C53.0%1015.0hPa0.0mm8.9km/hNE15.5km/h2uvi
21.04.2021 14:2513.3°C13.3°C13.2°C52.0%1015.0hPa0.0mm11.0km/hENE17.6km/h1uvi
21.04.2021 14:3013.4°C13.5°C13.3°C52.2%1015.0hPa0.0mm10.1km/hNE11.9km/h1uvi
21.04.2021 14:3513.5°C13.5°C13.4°C53.0%1015.0hPa0.0mm8.1km/hNE14.0km/h2uvi
21.04.2021 14:4013.5°C13.7°C13.4°C53.8%1015.0hPa0.0mm9.3km/hNE13.0km/h3uvi
21.04.2021 14:4513.7°C13.8°C13.7°C53.7%1015.0hPa0.0mm10.2km/hNE15.1km/h3uvi
21.04.2021 14:5013.9°C14.0°C13.9°C53.8%1015.0hPa0.0mm10.1km/hNE20.5km/h3uvi
21.04.2021 14:5513.9°C14.0°C13.8°C53.7%1015.0hPa0.0mm10.8km/hNE20.5km/h2uvi
21.04.2021 15:0014.0°C14.1°C14.0°C52.0%1015.0hPa0.0mm10.4km/hENE16.9km/h3uvi
21.04.2021 15:0514.1°C14.1°C14.0°C52.7%1015.0hPa0.0mm7.9km/hNE12.6km/h2uvi
21.04.2021 15:1013.9°C14.0°C13.9°C53.0%1015.7hPa0.0mm8.5km/hNE14.4km/h2uvi
21.04.2021 15:1513.9°C13.9°C13.8°C53.8%1016.0hPa0.0mm7.5km/hNE12.2km/h2uvi
21.04.2021 15:2013.9°C14.0°C13.9°C53.8%1016.0hPa0.0mm8.4km/hNE10.4km/h1uvi
21.04.2021 15:2514.0°C14.1°C14.0°C53.3%1016.0hPa0.0mm6.6km/hNE9.7km/h1uvi
21.04.2021 15:3014.0°C14.1°C14.0°C53.6%1016.0hPa0.0mm6.4km/hNE12.6km/h1uvi
21.04.2021 15:3513.8°C14.0°C13.6°C53.0%1016.0hPa0.0mm9.5km/hNE13.7km/h1uvi
21.04.2021 15:4013.9°C13.9°C13.8°C53.4%1015.2hPa0.0mm8.2km/hNE12.6km/h0uvi
21.04.2021 15:4513.8°C13.8°C13.7°C53.2%1015.0hPa0.0mm8.9km/hNE16.2km/h0uvi
21.04.2021 15:5013.8°C13.8°C13.7°C54.3%1015.0hPa0.0mm8.4km/hNE15.5km/h0uvi
21.04.2021 15:5513.7°C13.7°C13.7°C54.0%1015.0hPa0.0mm6.5km/hNE11.5km/h0uvi
21.04.2021 16:0013.6°C13.7°C13.5°C55.0%1015.0hPa0.0mm8.0km/hNE12.2km/h0uvi
21.04.2021 16:0513.6°C13.6°C13.5°C56.0%1015.0hPa0.0mm6.6km/hNE10.4km/h0uvi
21.04.2021 16:1013.4°C13.5°C13.3°C57.0%1015.0hPa0.0mm8.3km/hNE12.2km/h0uvi
21.04.2021 16:1513.4°C13.4°C13.3°C57.7%1015.0hPa0.0mm5.9km/hNE10.4km/h0uvi
21.04.2021 16:2013.3°C13.3°C13.3°C58.5%1015.0hPa0.0mm5.7km/hNE7.2km/h0uvi
21.04.2021 16:2513.3°C13.4°C13.3°C58.6%1015.0hPa0.0mm5.0km/hNE6.8km/h0uvi
21.04.2021 16:3013.3°C13.4°C13.3°C59.3%1015.0hPa0.0mm6.4km/hNE9.0km/h0uvi
21.04.2021 16:3513.3°C13.4°C13.3°C59.6%1015.0hPa0.0mm5.7km/hNE9.4km/h0uvi
21.04.2021 16:4013.3°C13.3°C13.3°C59.5%1015.0hPa0.0mm6.8km/hNE8.6km/h0uvi
21.04.2021 16:4513.2°C13.2°C13.2°C60.0%1015.0hPa0.0mm6.2km/hNE9.4km/h0uvi
21.04.2021 16:5013.3°C13.4°C13.2°C60.8%1015.0hPa0.0mm5.6km/hNE8.6km/h0uvi
21.04.2021 16:5513.4°C13.5°C13.3°C60.2%1015.0hPa0.0mm5.2km/hNE9.4km/h0uvi
21.04.2021 17:0013.4°C13.5°C13.4°C58.2%1015.0hPa0.0mm6.7km/hNE12.2km/h0uvi
21.04.2021 17:0513.8°C13.9°C13.6°C59.2%1015.0hPa0.0mm4.2km/hNE7.9km/h1uvi
21.04.2021 17:1013.8°C13.8°C13.7°C58.0%1015.8hPa0.0mm5.0km/hNE7.9km/h1uvi
21.04.2021 17:1513.9°C14.0°C13.8°C57.2%1016.0hPa0.0mm5.6km/hNE10.4km/h0uvi
21.04.2021 17:2014.0°C14.0°C13.9°C57.6%1016.0hPa0.0mm5.6km/hNE9.7km/h0uvi
21.04.2021 17:2514.0°C14.1°C14.0°C57.2%1015.3hPa0.0mm4.7km/hNE7.9km/h0uvi
21.04.2021 17:3014.1°C14.2°C14.1°C57.0%1015.0hPa0.0mm5.2km/hNE8.6km/h0uvi
21.04.2021 17:3514.0°C14.0°C14.0°C56.3%1015.0hPa0.0mm5.4km/hNE7.9km/h0uvi
21.04.2021 17:4014.1°C14.2°C14.0°C56.2%1015.0hPa0.0mm5.2km/hNE9.0km/h0uvi
21.04.2021 17:4514.3°C14.3°C14.2°C57.0%1015.0hPa0.0mm4.8km/hNE9.0km/h0uvi
21.04.2021 17:5014.2°C14.4°C14.1°C57.0%1015.0hPa0.0mm5.0km/hNW10.1km/h0uvi
21.04.2021 17:5514.2°C14.2°C14.1°C57.0%1015.0hPa0.0mm5.5km/hENE10.1km/h0uvi
21.04.2021 18:0014.0°C14.1°C14.0°C57.0%1015.0hPa0.0mm5.8km/hNE9.7km/h0uvi
21.04.2021 18:0513.9°C13.9°C13.9°C56.5%1015.0hPa0.0mm6.0km/hNE10.4km/h0uvi
21.04.2021 18:1013.7°C13.8°C13.7°C56.5%1015.0hPa0.0mm6.4km/hNE11.9km/h0uvi
21.04.2021 18:1513.6°C13.7°C13.6°C57.0%1015.0hPa0.0mm6.1km/hNE12.2km/h0uvi
21.04.2021 18:2013.6°C13.6°C13.6°C57.0%1015.0hPa0.0mm4.3km/hNE9.0km/h0uvi
21.04.2021 18:2513.5°C13.5°C13.5°C57.0%1015.0hPa0.0mm5.0km/hNE7.9km/h0uvi
21.04.2021 18:3013.4°C13.5°C13.4°C57.0%1015.0hPa0.0mm5.1km/hNE8.6km/h0uvi
21.04.2021 18:3513.3°C13.4°C13.2°C57.0%1015.0hPa0.0mm6.5km/hNE9.4km/h0uvi
21.04.2021 18:4013.2°C13.2°C13.2°C57.3%1015.0hPa0.0mm6.0km/hNE9.7km/h0uvi
21.04.2021 18:4513.2°C13.2°C13.2°C57.8%1015.0hPa0.0mm4.2km/hNE6.8km/h0uvi
21.04.2021 18:5013.2°C13.2°C13.2°C57.0%1015.0hPa0.0mm5.5km/hNE9.0km/h0uvi
21.04.2021 18:5513.2°C13.2°C13.2°C57.0%1015.9hPa0.0mm6.1km/hNE13.0km/h0uvi
21.04.2021 19:0013.2°C13.2°C13.1°C56.8%1016.0hPa0.0mm6.2km/hNE8.6km/h0uvi
21.04.2021 19:0513.1°C13.1°C13.1°C56.6%1016.0hPa0.0mm6.5km/hNE9.0km/h0uvi
21.04.2021 19:1013.1°C13.1°C13.1°C57.0%1016.0hPa0.0mm6.6km/hNE9.4km/h0uvi
21.04.2021 19:1513.1°C13.1°C13.1°C56.8%1016.0hPa0.0mm4.6km/hNE7.2km/h0uvi
21.04.2021 19:2013.0°C13.1°C13.0°C57.0%1016.0hPa0.0mm3.6km/hNE6.1km/h0uvi
21.04.2021 19:2513.0°C13.0°C13.0°C57.0%1015.2hPa0.0mm3.5km/hNE5.4km/h0uvi
21.04.2021 19:3012.9°C13.0°C12.9°C57.0%1015.0hPa0.0mm2.3km/hNE5.0km/h0uvi
21.04.2021 19:3512.9°C12.9°C12.9°C57.0%1015.0hPa0.0mm1.5km/hNE4.0km/h0uvi
21.04.2021 19:4012.9°C12.9°C12.9°C57.0%1015.0hPa0.0mm0.9km/hNE2.5km/h0uvi
21.04.2021 19:4512.8°C12.8°C12.8°C57.0%1015.0hPa0.0mm0.0km/hNE0.0km/h0uvi
21.04.2021 19:5012.8°C12.8°C12.8°C57.6%1015.0hPa0.0mm1.3km/hNE4.0km/h0uvi
21.04.2021 19:5512.7°C12.7°C12.7°C58.0%1015.7hPa0.0mm0.3km/hNE3.6km/h0uvi
21.04.2021 20:0012.7°C12.7°C12.6°C58.0%1016.0hPa0.0mm0.5km/hNE2.5km/h0uvi
21.04.2021 20:0512.6°C12.6°C12.6°C58.0%1016.0hPa0.0mm0.2km/hENE0.0km/h0uvi
21.04.2021 20:1012.6°C12.6°C12.5°C58.0%1016.0hPa0.0mm1.0km/hNE3.6km/h0uvi
21.04.2021 20:1512.5°C12.5°C12.4°C59.0%1016.0hPa0.0mm1.7km/hNE3.2km/h0uvi
21.04.2021 20:2012.4°C12.4°C12.4°C59.0%1016.0hPa0.0mm1.9km/hNE4.0km/h0uvi
21.04.2021 20:2512.3°C12.3°C12.3°C59.3%1016.0hPa0.0mm1.5km/hNE4.7km/h0uvi
21.04.2021 20:3012.2°C12.3°C12.2°C59.0%1016.0hPa0.0mm0.8km/hSSE2.5km/h0uvi
21.04.2021 20:3512.1°C12.2°C12.0°C61.0%1016.0hPa0.0mm3.6km/hSSE5.8km/h0uvi
21.04.2021 20:4011.9°C12.0°C11.9°C62.0%1016.0hPa0.0mm4.5km/hSSE7.9km/h0uvi
21.04.2021 20:4511.8°C11.9°C11.7°C62.3%1016.0hPa0.0mm4.4km/hSSE7.9km/h0uvi
21.04.2021 20:5011.7°C11.7°C11.6°C63.0%1016.0hPa0.0mm2.6km/hSSE4.0km/h0uvi
21.04.2021 20:5511.6°C11.6°C11.6°C63.0%1016.0hPa0.0mm2.3km/hSSE4.0km/h0uvi
21.04.2021 21:0011.5°C11.5°C11.5°C63.0%1016.0hPa0.0mm1.2km/hSSW2.5km/h0uvi
21.04.2021 21:0511.4°C11.4°C11.4°C63.0%1016.0hPa0.0mm1.0km/hENE4.0km/h0uvi
21.04.2021 21:1011.3°C11.3°C11.2°C63.8%1016.0hPa0.0mm4.4km/hSSE6.5km/h0uvi
21.04.2021 21:1511.2°C11.2°C11.1°C64.0%1016.0hPa0.0mm5.8km/hSSE10.4km/h0uvi
21.04.2021 21:2011.1°C11.1°C11.1°C64.0%1016.0hPa0.0mm3.3km/hSSE6.1km/h0uvi
21.04.2021 21:2511.0°C11.1°C11.0°C64.0%1016.8hPa0.0mm3.8km/hSSE6.8km/h0uvi
21.04.2021 21:3010.9°C11.0°C10.9°C64.0%1017.0hPa0.0mm3.4km/hSSW5.0km/h0uvi
21.04.2021 21:3510.8°C10.9°C10.7°C64.0%1017.0hPa0.0mm4.4km/hSSW6.1km/h0uvi
21.04.2021 21:4010.6°C10.7°C10.5°C64.4%1017.7hPa0.0mm4.8km/hSE6.1km/h0uvi
21.04.2021 21:4510.4°C10.4°C10.3°C65.0%1018.0hPa0.0mm4.8km/hSSE9.0km/h0uvi
21.04.2021 21:5010.2°C10.3°C10.2°C65.0%1018.0hPa0.0mm5.1km/hSSW6.8km/h0uvi
21.04.2021 21:5510.2°C10.2°C10.2°C65.0%1017.2hPa0.0mm3.6km/hSSW6.1km/h0uvi
21.04.2021 22:0010.1°C10.2°C10.0°C65.2%1017.0hPa0.0mm4.4km/hSSE9.0km/h0uvi
21.04.2021 22:0510.0°C10.0°C9.9°C66.0%1017.0hPa0.0mm4.6km/hSSW7.6km/h0uvi
21.04.2021 22:109.9°C9.9°C9.9°C67.0%1017.7hPa0.0mm4.9km/hSSW6.8km/h0uvi
21.04.2021 22:159.8°C9.8°C9.8°C67.0%1018.0hPa0.0mm5.9km/hSSW9.4km/h0uvi
21.04.2021 22:209.8°C9.8°C9.8°C67.0%1018.0hPa0.0mm3.3km/hSSE5.0km/h0uvi
21.04.2021 22:259.8°C9.8°C9.7°C67.0%1017.1hPa0.0mm4.8km/hSSW9.4km/h0uvi
21.04.2021 22:309.7°C9.7°C9.7°C67.0%1017.0hPa0.0mm3.9km/hSSE9.7km/h0uvi
21.04.2021 22:359.6°C9.7°C9.6°C67.0%1017.0hPa0.0mm2.2km/hSSE4.3km/h0uvi
21.04.2021 22:409.6°C9.6°C9.6°C67.0%1017.0hPa0.0mm3.5km/hSSE6.1km/h0uvi
21.04.2021 22:459.5°C9.6°C9.4°C68.0%1017.0hPa0.0mm4.7km/hSSW6.5km/h0uvi
21.04.2021 22:509.4°C9.4°C9.4°C68.0%1017.0hPa0.0mm4.7km/hSSW6.8km/h0uvi
21.04.2021 22:559.3°C9.3°C9.3°C68.0%1017.8hPa0.0mm3.6km/hSE6.5km/h0uvi
21.04.2021 23:009.2°C9.2°C9.1°C68.0%1018.0hPa0.0mm4.0km/hSSE5.8km/h0uvi
21.04.2021 23:059.1°C9.1°C9.0°C68.4%1018.0hPa0.0mm4.7km/hSE7.9km/h0uvi
21.04.2021 23:109.0°C9.0°C9.0°C69.0%1018.0hPa0.0mm4.6km/hSSE8.6km/h0uvi
21.04.2021 23:159.0°C9.0°C9.0°C69.0%1018.0hPa0.0mm4.7km/hSSE9.7km/h0uvi
21.04.2021 23:209.1°C9.1°C9.0°C69.0%1018.0hPa0.0mm5.6km/hSSW7.9km/h0uvi
21.04.2021 23:259.0°C9.1°C9.0°C69.0%1018.0hPa0.0mm5.7km/hSSW9.0km/h0uvi
21.04.2021 23:309.0°C9.0°C9.0°C69.0%1018.0hPa0.0mm5.4km/hSSW7.9km/h0uvi
21.04.2021 23:359.0°C9.0°C9.0°C69.0%1018.0hPa0.0mm5.6km/hSSW9.7km/h0uvi
21.04.2021 23:409.0°C9.0°C8.9°C69.0%1018.0hPa0.0mm5.7km/hSSW8.6km/h0uvi
21.04.2021 23:458.9°C8.9°C8.9°C69.0%1018.0hPa0.0mm5.2km/hSSW9.7km/h0uvi
21.04.2021 23:508.8°C8.8°C8.8°C69.0%1018.0hPa0.0mm4.8km/hSSW5.8km/h0uvi
21.04.2021 23:558.8°C8.8°C8.7°C69.0%1018.0hPa0.0mm6.0km/hSSW10.1km/h0uvi
22.04.2021 00:008.7°C8.7°C8.7°C69.0%1018.0hPa0.0mm5.3km/hSSW7.9km/h0uvi
22.04.2021 00:058.6°C8.7°C8.6°C69.0%1018.0hPa0.0mm5.3km/hSSW10.8km/h0uvi
22.04.2021 00:108.5°C8.6°C8.5°C69.0%1017.2hPa0.0mm5.8km/hSSW10.1km/h0uvi
22.04.2021 00:158.5°C8.5°C8.5°C69.4%1017.0hPa0.0mm5.7km/hSSW7.6km/h0uvi
22.04.2021 00:208.4°C8.4°C8.4°C69.6%1017.0hPa0.0mm5.4km/hSSW7.9km/h0uvi
22.04.2021 00:258.3°C8.4°C8.3°C69.2%1017.8hPa0.0mm3.8km/hSSW6.5km/h0uvi
22.04.2021 00:308.2°C8.3°C8.2°C70.6%1018.0hPa0.0mm5.0km/hSSW6.5km/h0uvi
22.04.2021 00:358.2°C8.2°C8.2°C71.0%1018.0hPa0.0mm4.8km/hSSW7.9km/h0uvi
22.04.2021 00:408.2°C8.2°C8.2°C70.0%1018.0hPa0.0mm4.2km/hSSW6.1km/h0uvi
22.04.2021 00:458.2°C8.2°C8.2°C70.0%1018.0hPa0.0mm4.8km/hSSW6.1km/h0uvi
22.04.2021 00:508.2°C8.2°C8.2°C70.0%1018.0hPa0.0mm5.2km/hSSW9.7km/h0uvi
22.04.2021 00:558.2°C8.2°C8.1°C70.0%1018.0hPa0.0mm5.5km/hSSW7.9km/h0uvi
22.04.2021 01:008.1°C8.1°C8.1°C70.0%1018.0hPa0.0mm4.9km/hSSW7.6km/h0uvi
22.04.2021 01:058.0°C8.1°C8.0°C70.0%1018.0hPa0.0mm4.7km/hSSE7.6km/h0uvi
22.04.2021 01:108.0°C8.0°C7.9°C70.0%1018.0hPa0.0mm3.7km/hESE6.5km/h0uvi
22.04.2021 01:158.0°C8.0°C8.0°C70.5%1018.0hPa0.0mm5.4km/hSSW6.5km/h0uvi
22.04.2021 01:208.0°C8.0°C7.9°C70.0%1018.0hPa0.0mm2.6km/hSSE4.0km/h0uvi
22.04.2021 01:257.9°C7.9°C7.9°C70.0%1018.0hPa0.0mm2.9km/hSSW5.0km/h0uvi
22.04.2021 01:307.9°C7.9°C7.9°C70.0%1018.0hPa0.0mm2.9km/hSSW4.0km/h0uvi
22.04.2021 01:357.8°C7.8°C7.8°C70.0%1018.0hPa0.0mm3.4km/hSSE5.8km/h0uvi
22.04.2021 01:407.7°C7.7°C7.6°C70.0%1018.0hPa0.0mm4.3km/hSSE6.1km/h0uvi
22.04.2021 01:457.6°C7.7°C7.6°C70.8%1018.0hPa0.0mm5.1km/hSSW8.6km/h0uvi
22.04.2021 01:507.7°C7.7°C7.7°C71.0%1018.0hPa0.0mm5.5km/hSSW7.9km/h0uvi
22.04.2021 01:557.7°C7.7°C7.7°C70.0%1018.0hPa0.0mm5.0km/hSSW9.4km/h0uvi
22.04.2021 02:007.7°C7.7°C7.7°C70.0%1018.0hPa0.0mm5.6km/hSSW7.9km/h0uvi
22.04.2021 02:057.6°C7.6°C7.6°C70.2%1018.0hPa0.0mm4.9km/hSSW9.0km/h0uvi
22.04.2021 02:107.5°C7.6°C7.5°C71.0%1018.0hPa0.0mm5.4km/hSSW8.6km/h0uvi
22.04.2021 02:157.5°C7.5°C7.4°C71.0%1018.0hPa0.0mm4.2km/hSSW5.8km/h0uvi
22.04.2021 02:207.3°C7.4°C7.3°C70.8%1018.0hPa0.0mm2.9km/hSSE6.8km/h0uvi
22.04.2021 02:257.2°C7.3°C7.2°C71.0%1018.0hPa0.0mm4.1km/hSSW8.6km/h0uvi
22.04.2021 02:307.2°C7.2°C7.1°C71.0%1018.0hPa0.0mm3.5km/hESE4.7km/h0uvi
22.04.2021 02:357.0°C7.1°C7.0°C70.4%1018.0hPa0.0mm1.0km/hSSW6.1km/h0uvi
22.04.2021 02:407.0°C7.0°C7.0°C71.0%1018.0hPa0.0mm2.9km/hSSE4.0km/h0uvi
22.04.2021 02:457.0°C7.0°C6.9°C72.0%1018.0hPa0.0mm3.1km/hSSW5.4km/h0uvi
22.04.2021 02:506.9°C6.9°C6.8°C72.0%1018.0hPa0.0mm2.8km/hSSE4.3km/h0uvi
22.04.2021 02:556.8°C6.8°C6.8°C72.8%1017.2hPa0.0mm3.1km/hSSE5.4km/h0uvi
22.04.2021 03:006.8°C6.8°C6.8°C73.0%1017.0hPa0.0mm2.5km/hSSE3.6km/h0uvi
22.04.2021 03:056.8°C6.8°C6.8°C73.0%1017.0hPa0.0mm2.2km/hSSW6.1km/h0uvi
22.04.2021 03:106.7°C6.8°C6.7°C73.0%1017.6hPa0.0mm3.3km/hSSE4.7km/h0uvi
22.04.2021 03:156.6°C6.7°C6.6°C73.0%1018.0hPa0.0mm3.7km/hSSW5.8km/h0uvi
22.04.2021 03:206.6°C6.6°C6.5°C73.0%1018.0hPa0.0mm3.5km/hSSE6.1km/h0uvi
22.04.2021 03:256.5°C6.5°C6.5°C73.0%1018.0hPa0.0mm3.4km/hSSE5.4km/h0uvi
22.04.2021 03:306.4°C6.4°C6.4°C73.0%1018.0hPa0.0mm4.0km/hSSW6.8km/h0uvi
22.04.2021 03:356.4°C6.4°C6.4°C73.8%1018.0hPa0.0mm4.4km/hSSW6.8km/h0uvi
22.04.2021 03:406.4°C6.4°C6.4°C74.5%1018.0hPa0.0mm4.0km/hSSW6.8km/h0uvi
22.04.2021 03:456.4°C6.4°C6.4°C75.0%1018.0hPa0.0mm2.2km/hSSW4.7km/h0uvi
22.04.2021 03:506.3°C6.3°C6.3°C75.0%1018.0hPa0.0mm2.4km/hSSW5.8km/h0uvi
22.04.2021 03:556.3°C6.3°C6.3°C75.0%1018.0hPa0.0mm4.1km/hSSE5.8km/h0uvi
22.04.2021 04:006.3°C6.3°C6.2°C75.5%1018.0hPa0.0mm5.0km/hSSW7.2km/h0uvi
22.04.2021 04:056.3°C6.3°C6.3°C75.4%1018.0hPa0.0mm3.7km/hSSE4.7km/h0uvi
22.04.2021 04:106.2°C6.2°C6.2°C75.0%1018.0hPa0.0mm3.1km/hSSW6.5km/h0uvi
22.04.2021 04:156.2°C6.3°C6.2°C75.2%1018.0hPa0.0mm4.9km/hSSW7.6km/h0uvi
22.04.2021 04:206.3°C6.3°C6.3°C74.2%1018.0hPa0.0mm5.0km/hSSW7.6km/h0uvi
22.04.2021 04:256.3°C6.3°C6.3°C73.7%1018.0hPa0.0mm1.1km/hSSE2.5km/h0uvi
22.04.2021 04:306.3°C6.3°C6.2°C73.0%1018.0hPa0.0mm0.0km/hSE0.0km/h0uvi
22.04.2021 04:356.1°C6.2°C6.1°C73.0%1018.0hPa0.0mm1.1km/hSSE3.2km/h0uvi
22.04.2021 04:406.0°C6.1°C6.0°C73.2%1018.0hPa0.0mm1.5km/hSSE4.3km/h0uvi
22.04.2021 04:455.9°C6.0°C5.8°C74.0%1018.0hPa0.0mm2.0km/hSSW4.0km/h0uvi
22.04.2021 04:505.8°C5.8°C5.8°C74.0%1018.0hPa0.0mm0.8km/hWSW2.2km/h0uvi
22.04.2021 04:555.7°C5.8°C5.7°C74.8%1018.0hPa0.0mm0.3km/hWSW1.8km/h0uvi
22.04.2021 05:005.6°C5.7°C5.6°C74.5%1018.0hPa0.0mm0.0km/hWSW0.0km/h0uvi
22.04.2021 05:055.5°C5.6°C5.5°C74.2%1018.0hPa0.0mm0.0km/hWSW2.2km/h0uvi
22.04.2021 05:105.4°C5.5°C5.3°C75.5%1018.0hPa0.0mm1.3km/hSSW3.6km/h0uvi
22.04.2021 05:155.2°C5.3°C5.2°C77.0%1018.0hPa0.0mm1.4km/hWSW2.5km/h0uvi
22.04.2021 05:205.1°C5.1°C5.1°C77.0%1018.0hPa0.0mm1.2km/hWNW3.6km/h0uvi
22.04.2021 05:255.1°C5.1°C5.1°C77.8%1018.0hPa0.0mm1.2km/hWSW3.2km/h0uvi
22.04.2021 05:305.0°C5.1°C5.0°C78.0%1018.0hPa0.0mm2.0km/hNW3.6km/h0uvi
22.04.2021 05:354.9°C4.9°C4.9°C78.0%1018.0hPa0.0mm0.0km/hWNW1.8km/h0uvi
22.04.2021 05:404.8°C4.8°C4.7°C78.0%1018.0hPa0.0mm0.3km/hWSW2.5km/h0uvi
22.04.2021 05:454.7°C4.7°C4.7°C78.0%1018.0hPa0.0mm1.5km/hWSW3.6km/h0uvi
22.04.2021 05:504.5°C4.5°C4.5°C78.5%1018.0hPa0.0mm1.6km/hSSW3.6km/h0uvi
22.04.2021 05:554.5°C4.5°C4.4°C81.0%1018.0hPa0.0mm4.0km/hSSW6.5km/h0uvi
22.04.2021 06:004.3°C4.4°C4.3°C81.5%1018.0hPa0.0mm3.8km/hSSW6.1km/h0uvi
22.04.2021 06:054.3°C4.4°C4.3°C82.8%1018.0hPa0.0mm3.6km/hSSW5.4km/h0uvi
22.04.2021 06:104.3°C4.3°C4.3°C83.0%1018.0hPa0.0mm1.3km/hWSW2.5km/h0uvi
22.04.2021 06:154.3°C4.3°C4.3°C83.0%1018.0hPa0.0mm0.9km/hSSW1.8km/h0uvi
22.04.2021 06:204.4°C4.4°C4.3°C83.3%1018.0hPa0.0mm1.8km/hSSW3.2km/h0uvi
22.04.2021 06:254.4°C4.5°C4.4°C84.0%1017.2hPa0.0mm1.5km/hSSW2.5km/h0uvi
22.04.2021 06:304.6°C4.6°C4.5°C84.0%1017.0hPa0.0mm0.0km/hSSW0.0km/h0uvi
22.04.2021 06:354.6°C4.6°C4.6°C83.0%1017.0hPa0.0mm0.7km/hS2.5km/h0uvi
22.04.2021 06:404.6°C4.6°C4.6°C83.0%1017.0hPa0.0mm0.0km/hWSW0.0km/h0uvi
22.04.2021 06:454.6°C4.6°C4.6°C82.6%1017.0hPa0.0mm0.0km/hWSW0.0km/h0uvi
22.04.2021 06:504.6°C4.6°C4.6°C82.0%1017.0hPa0.0mm1.1km/hWSW2.5km/h0uvi
22.04.2021 06:554.6°C4.6°C4.6°C82.0%1017.0hPa0.0mm0.6km/hSSW2.2km/h0uvi
22.04.2021 07:004.6°C4.6°C4.6°C82.0%1017.0hPa0.0mm0.2km/hWSW2.2km/h0uvi
22.04.2021 07:054.6°C4.6°C4.6°C82.0%1017.0hPa0.0mm0.0km/hWSW0.0km/h0uvi
22.04.2021 07:104.6°C4.6°C4.6°C82.0%1017.7hPa0.0mm0.0km/hWSW1.8km/h0uvi
22.04.2021 07:154.6°C4.6°C4.6°C82.0%1018.0hPa0.0mm0.6km/hWSW2.5km/h0uvi
22.04.2021 07:204.6°C4.6°C4.6°C82.0%1018.0hPa0.0mm0.6km/hWSW2.5km/h0uvi
22.04.2021 07:254.7°C4.7°C4.6°C82.0%1018.0hPa0.0mm0.3km/hWNW2.5km/h0uvi
22.04.2021 07:304.7°C4.7°C4.7°C82.0%1018.0hPa0.0mm0.2km/hWSW2.5km/h0uvi
22.04.2021 07:354.8°C4.8°C4.8°C82.0%1018.0hPa0.0mm1.0km/hWSW3.6km/h0uvi
22.04.2021 07:404.9°C4.9°C4.9°C83.0%1018.0hPa0.0mm0.6km/hWSW2.5km/h0uvi
22.04.2021 07:455.1°C5.1°C5.0°C83.0%1018.0hPa0.0mm0.7km/hWSW2.2km/h0uvi
22.04.2021 07:505.2°C5.3°C5.2°C83.0%1018.0hPa0.0mm0.0km/hWSW0.0km/h0uvi